Winburne, Pennsylvania
Current Conditions -  °F | °C
As of 5:54 PM on Thursday 27 Nov 2014 (Local Time) from KFIG Reporting Station
Light Snow Light Snow  
Wind Chill: 22°   Ceiling: 1900
Heat Index: 30°   Visibility: 1.5mi
Dew Point: 28°   Wind: 8mph
Humidity: 92%   Direction: 270°W
Pressure: 30.06"   Gusts: NA
Location:  40.97°N, 78.15°W
Report Text: KFIG 272254Z AUTO 27007KT 1 1/2SM -SN BR BKN019 OVC038 M01/M02 A3006 RMK AO2 SLP196 P0000 T10111022
Loading
Personal Weather Stations






























Interactive Weather Map New forecast layout! Learn more

10-Day Weather Forecast

Advertisements
Track Severe Weather on mobile